Time;durP1;ratioP1;P1;durP2;ratioP2;P2;SDS_P1;SDS_P2;PMS_P1;PMS_P2;Temp;Humidity;BMP_temperature;BMP_pressure;BME280_temperature;BME280_humidity;BME280_pressure;Samples;Min_cycle;Max_cycle;Signal;HPM_P1;HPM_P2
2022/07/18 00:01:39;;;;;;;6.67;3.83;;;22.00;1.00;;;;;;5069607;28;20158;-70
2022/07/18 00:04:05;;;;;;;5.23;3.63;;;22.00;1.00;;;;;;5068916;28;20590;-70
2022/07/18 00:06:31;;;;;;;10.00;3.40;;;22.10;1.00;;;;;;5068960;28;20194;-71
2022/07/18 00:08:56;;;;;;;13.73;3.80;;;22.00;1.00;;;;;;5049415;28;20317;-69
2022/07/18 00:11:22;;;;;;;4.77;3.37;;;22.10;1.00;;;;;;5065352;28;20174;-69
2022/07/18 00:13:51;;;;;;;5.03;3.10;;;22.10;1.00;;;;;;5063907;28;20202;-71
2022/07/18 00:16:17;;;;;;;3.90;3.50;;;22.10;1.00;;;;;;5037052;28;20186;-69
2022/07/18 00:18:43;;;;;;;3.67;2.93;;;22.00;1.00;;;;;;5059091;28;20504;-69
2022/07/18 00:21:09;;;;;;;3.97;3.10;;;21.90;1.00;;;;;;5052573;28;20401;-71
2022/07/18 00:23:35;;;;;;;3.00;2.70;;;21.90;1.00;;;;;;5047738;28;20409;-70
2022/07/18 00:26:01;;;;;;;8.90;3.53;;;21.80;1.00;;;;;;5058420;28;20808;-68
2022/07/18 00:28:27;;;;;;;3.67;3.30;;;21.80;1.00;;;;;;5057328;28;20186;-71
2022/07/18 00:30:53;;;;;;;4.30;2.93;;;21.80;1.00;;;;;;5044375;28;20209;-68
2022/07/18 00:33:19;;;;;;;5.37;3.50;;;21.70;1.00;;;;;;5058211;28;20433;-69
2022/07/18 00:35:44;;;;;;;7.60;3.70;;;21.70;1.00;;;;;;5051090;28;20261;-68
2022/07/18 00:38:10;;;;;;;5.10;3.30;;;21.60;1.00;;;;;;5050124;28;20920;-70
2022/07/18 00:40:36;;;;;;;13.40;3.90;;;21.60;1.00;;;;;;5049266;28;20167;-71
2022/07/18 00:43:02;;;;;;;13.50;3.50;;;21.60;1.00;;;;;;5058545;28;20202;-69
2022/07/18 00:45:28;;;;;;;3.30;3.00;;;21.60;1.00;;;;;;5068066;28;20170;-69
2022/07/18 00:47:54;;;;;;;5.57;2.70;;;21.60;1.00;;;;;;5071404;28;20455;-69
2022/07/18 00:50:20;;;;;;;4.30;2.90;;;21.60;1.00;;;;;;5073452;28;20178;-68
2022/07/18 00:52:47;;;;;;;4.90;3.20;;;21.60;1.00;;;;;;5072810;28;20166;-71
2022/07/18 00:55:13;;;;;;;5.20;3.20;;;21.60;1.00;;;;;;5073135;28;20458;-72
2022/07/18 00:57:41;;;;;;;9.80;3.13;;;21.50;1.00;;;;;;5072121;28;21286;-69
2022/07/18 01:02:56;;;;;;;36.57;5.70;;;21.40;1.00;;;;;;5057412;28;20411;-69
2022/07/18 01:05:22;;;;;;;20.60;4.70;;;21.30;1.00;;;;;;5065524;28;20983;-69
2022/07/18 01:07:47;;;;;;;6.53;3.70;;;21.30;1.00;;;;;;5072152;28;20527;-72
2022/07/18 01:10:13;;;;;;;5.10;3.13;;;21.30;1.00;;;;;;5072347;28;20476;-69
2022/07/18 01:12:39;;;;;;;3.73;3.33;;;21.30;1.00;;;;;;5071010;28;20224;-71
2022/07/18 01:15:06;;;;;;;4.10;3.80;;;21.30;1.00;;;;;;5072285;28;20186;-69
2022/07/18 01:17:32;;;;;;;4.33;3.87;;;21.30;1.00;;;;;;5070702;28;20221;-68
2022/07/18 01:19:57;;;;;;;10.67;3.97;;;21.40;1.00;;;;;;5072955;28;20407;-69
2022/07/18 01:22:23;;;;;;;9.20;4.23;;;21.40;1.00;;;;;;5052734;28;20182;-69
2022/07/18 01:24:49;;;;;;;8.50;3.57;;;21.30;1.00;;;;;;5051985;28;20257;-71
2022/07/18 01:27:17;;;;;;;10.20;3.57;;;21.40;1.00;;;;;;5051180;28;20486;-71
2022/07/18 01:29:45;;;;;;;8.80;4.13;;;21.40;1.00;;;;;;5051282;28;20415;-69
2022/07/18 01:32:11;;;;;;;7.07;3.73;;;21.30;1.00;;;;;;5051398;28;20863;-71
2022/07/18 01:34:37;;;;;;;4.23;3.10;;;21.20;1.00;;;;;;5056989;28;20485;-69
2022/07/18 01:37:06;;;;;;;5.80;3.70;;;21.10;1.00;;;;;;5057835;28;20441;-71
2022/07/18 01:39:32;;;;;;;5.43;3.40;;;21.10;1.00;;;;;;5055061;28;20489;-69
2022/07/18 01:42:00;;;;;;;13.87;3.50;;;21.10;1.00;;;;;;5062004;28;20404;-70
2022/07/18 01:44:27;;;;;;;6.20;3.73;;;21.00;1.00;;;;;;5069748;28;20525;-71
2022/07/18 01:46:53;;;;;;;13.77;4.50;;;21.00;1.00;;;;;;5081508;28;20428;-71
2022/07/18 01:49:20;;;;;;;6.33;3.43;;;21.10;1.00;;;;;;5080400;28;20468;-69
2022/07/18 01:51:47;;;;;;;4.60;3.93;;;21.10;1.00;;;;;;5083663;28;20431;-71
2022/07/18 01:54:13;;;;;;;5.20;4.33;;;20.90;1.00;;;;;;5085817;28;20548;-70
2022/07/18 01:56:39;;;;;;;4.13;3.73;;;21.00;1.00;;;;;;5080224;28;20436;-70
2022/07/18 01:59:04;;;;;;;4.53;4.13;;;21.00;1.00;;;;;;5069534;28;20814;-68
2022/07/18 02:01:30;;;;;;;7.60;3.90;;;20.90;1.10;;;;;;5075824;28;20174;-69
2022/07/18 02:03:56;;;;;;;6.77;3.83;;;21.00;1.60;;;;;;5073327;28;20166;-70
2022/07/18 02:06:21;;;;;;;6.17;3.53;;;21.10;1.60;;;;;;5052384;28;20553;-69
2022/07/18 02:08:47;;;;;;;150.97;15.03;;;21.10;1.70;;;;;;5058156;28;20230;-69
2022/07/18 02:11:13;;;;;;;11.80;4.80;;;21.00;1.70;;;;;;5062325;28;20665;-69
2022/07/18 02:13:39;;;;;;;10.00;4.47;;;21.00;2.20;;;;;;5064526;28;20501;-69
2022/07/18 02:16:05;;;;;;;6.07;3.90;;;21.10;2.30;;;;;;5069484;28;20281;-69
2022/07/18 02:18:32;;;;;;;16.53;4.43;;;21.00;2.80;;;;;;5049689;28;20512;-69
2022/07/18 02:20:59;;;;;;;7.40;4.00;;;20.90;2.70;;;;;;5059562;28;20409;-68
2022/07/18 02:23:25;;;;;;;6.77;4.40;;;20.90;2.70;;;;;;5030728;28;20815;-75
2022/07/18 02:25:51;;;;;;;19.03;4.63;;;20.90;3.20;;;;;;5047220;28;20459;-69
2022/07/18 02:28:16;;;;;;;11.03;4.40;;;20.90;3.30;;;;;;5051608;28;20263;-69
2022/07/18 02:30:42;;;;;;;11.40;4.60;;;20.90;3.70;;;;;;5037932;28;20172;-68
2022/07/18 02:33:08;;;;;;;7.63;3.67;;;20.80;3.80;;;;;;5054982;28;20181;-68
2022/07/18 02:35:34;;;;;;;5.77;3.90;;;20.80;3.70;;;;;;5057533;28;20623;-68
2022/07/18 02:37:59;;;;;;;7.23;3.50;;;20.80;4.20;;;;;;5046903;28;20268;-70
2022/07/18 02:40:25;;;;;;;8.50;4.00;;;20.80;4.40;;;;;;5052213;28;20240;-71
2022/07/18 02:42:51;;;;;;;4.00;3.27;;;20.80;4.40;;;;;;5066048;28;20597;-71
2022/07/18 02:45:17;;;;;;;4.13;3.67;;;20.70;5.00;;;;;;5058608;28;20173;-71
2022/07/18 02:47:43;;;;;;;16.90;5.33;;;20.70;4.80;;;;;;5049681;28;20197;-71
2022/07/18 02:50:10;;;;;;;7.20;3.90;;;20.60;5.30;;;;;;5060081;28;20208;-71
2022/07/18 02:52:36;;;;;;;14.87;4.80;;;20.60;5.20;;;;;;5069120;28;20174;-71
2022/07/18 02:55:03;;;;;;;14.40;5.07;;;20.50;5.60;;;;;;5068593;28;20912;-71
2022/07/18 02:57:29;;;;;;;14.23;4.57;;;20.50;6.30;;;;;;5054226;28;20650;-71
2022/07/18 02:59:55;;;;;;;15.93;4.83;;;20.60;6.60;;;;;;5065067;28;20915;-72
2022/07/18 03:02:20;;;;;;;13.73;3.93;;;20.60;6.70;;;;;;5068125;28;20201;-71
2022/07/18 03:04:46;;;;;;;13.37;4.77;;;20.60;16.30;;;;;;5061753;28;20177;-69
2022/07/18 03:07:12;;;;;;;17.37;5.20;;;20.70;6.80;;;;;;5041564;28;20287;-71
2022/07/18 03:09:38;;;;;;;14.03;4.47;;;20.60;6.60;;;;;;5067639;28;20281;-72
2022/07/18 03:12:04;;;;;;;18.23;4.40;;;20.50;6.40;;;;;;5068684;28;20276;-72
2022/07/18 03:14:29;;;;;;;21.87;5.63;;;20.50;6.60;;;;;;5067579;28;20247;-69
2022/07/18 03:16:55;;;;;;;23.97;4.77;;;20.60;7.20;;;;;;5068476;28;20189;-70
2022/07/18 03:19:21;;;;;;;35.70;6.40;;;20.50;7.10;;;;;;5049083;28;20264;-69
2022/07/18 03:21:47;;;;;;;27.13;5.40;;;20.50;7.20;;;;;;5052736;28;20628;-70
2022/07/18 03:24:16;;;;;;;23.70;4.97;;;20.50;7.10;;;;;;5047513;28;20904;-69
2022/07/18 03:26:43;;;;;;;19.10;6.20;;;20.50;7.10;;;;;;5043669;28;21255;-69
2022/07/18 03:29:10;;;;;;;19.70;5.10;;;20.40;7.50;;;;;;5054551;28;20503;-71
2022/07/18 03:31:35;;;;;;;26.50;5.33;;;20.40;7.00;;;;;;5059445;28;20396;-70
2022/07/18 03:34:01;;;;;;;16.63;4.77;;;20.40;7.30;;;;;;5066956;28;20454;-70
2022/07/18 03:36:27;;;;;;;4.80;4.20;;;20.40;7.40;;;;;;5055442;28;20573;-71
2022/07/18 03:38:53;;;;;;;27.93;6.97;;;20.40;7.60;;;;;;5046532;28;20579;-70
2022/07/18 03:41:18;;;;;;;34.47;5.97;;;20.20;7.60;;;;;;5048130;28;20225;-69
2022/07/18 03:43:44;;;;;;;16.30;4.30;;;20.20;7.60;;;;;;5049169;28;20197;-70
2022/07/18 03:46:10;;;;;;;49.10;7.40;;;20.30;7.80;;;;;;5057335;28;20567;-69
2022/07/18 03:48:36;;;;;;;30.73;6.47;;;20.10;7.90;;;;;;5036123;28;20286;-71
2022/07/18 03:51:03;;;;;;;21.70;5.73;;;20.20;8.20;;;;;;5058981;28;20275;-71
2022/07/18 03:53:29;;;;;;;33.10;6.20;;;20.20;17.80;;;;;;5067421;28;21273;-69
2022/07/18 03:55:55;;;;;;;22.60;5.07;;;20.20;8.40;;;;;;5067796;28;20483;-68
2022/07/18 03:58:21;;;;;;;6.33;3.50;;;20.30;9.10;;;;;;5091337;22;20634;-71
2022/07/18 04:00:47;;;;;;;14.77;6.23;;;20.50;8.80;;;;;;5080022;28;20159;-71
2022/07/18 04:03:12;;;;;;;26.50;6.53;;;20.50;8.40;;;;;;5087148;28;20874;-71
2022/07/18 04:05:38;;;;;;;22.93;6.37;;;20.70;9.00;;;;;;5087622;28;20184;-71
2022/07/18 04:08:04;;;;;;;18.43;5.93;;;20.70;8.60;;;;;;5086426;28;20212;-72
2022/07/18 04:10:30;;;;;;;21.30;5.13;;;20.80;8.70;;;;;;5087748;28;20161;-72
2022/07/18 04:12:56;;;;;;;34.83;6.73;;;21.00;8.60;;;;;;5087208;28;20292;-72
2022/07/18 04:15:23;;;;;;;18.90;4.20;;;21.10;8.90;;;;;;5088166;28;21160;-71
2022/07/18 04:17:50;;;;;;;35.87;5.73;;;21.20;8.60;;;;;;5086563;28;20246;-72
2022/07/18 04:20:17;;;;;;;88.43;10.70;;;21.10;8.00;;;;;;5083596;28;20412;-71
2022/07/18 04:22:55;;;;;;;35.70;6.07;;;21.10;7.90;;;;;;5067689;28;20481;-71
2022/07/18 04:25:22;;;;;;;15.43;5.77;;;21.10;7.90;;;;;;5068273;28;20520;-72
2022/07/18 04:27:49;;;;;;;52.93;6.90;;;21.00;7.00;;;;;;5066751;28;20519;-72
2022/07/18 04:30:18;;;;;;;15.00;4.60;;;21.00;6.90;;;;;;5069980;28;20401;-71
2022/07/18 04:32:44;;;;;;;9.50;5.70;;;21.20;7.30;;;;;;5083297;28;20446;-71
2022/07/18 04:35:11;;;;;;;13.47;4.47;;;21.40;7.80;;;;;;5095150;28;20479;-72
2022/07/18 04:37:37;;;;;;;10.17;4.07;;;21.70;7.70;;;;;;5072512;28;20420;-71
2022/07/18 04:40:04;;;;;;;39.83;6.63;;;21.80;7.20;;;;;;5067151;28;20446;-71
2022/07/18 04:42:32;;;;;;;49.10;8.10;;;21.90;7.00;;;;;;5066508;28;20401;-72
2022/07/18 04:44:58;;;;;;;15.20;5.03;;;22.10;6.60;;;;;;5080464;28;20892;-72
2022/07/18 04:47:26;;;;;;;30.73;6.27;;;22.10;15.50;;;;;;5069651;28;20454;-71
2022/07/18 04:49:52;;;;;;;49.00;6.90;;;22.30;5.90;;;;;;5075423;28;20934;-71
2022/07/18 04:52:18;;;;;;;12.40;5.33;;;22.20;4.60;;;;;;5087726;28;20867;-71
2022/07/18 04:54:43;;;;;;;46.90;7.73;;;22.20;4.70;;;;;;5086770;28;20458;-71
2022/07/18 04:57:11;;;;;;;27.67;5.43;;;22.20;4.50;;;;;;5073949;28;20707;-71
2022/07/18 04:59:41;;;;;;;22.57;6.03;;;22.50;4.40;;;;;;5080917;28;20194;-71
2022/07/18 05:02:07;;;;;;;14.37;5.13;;;22.70;3.70;;;;;;5081148;28;20428;-72
2022/07/18 05:04:33;;;;;;;14.90;4.17;;;22.70;3.30;;;;;;5068851;28;20845;-67
2022/07/18 05:06:59;;;;;;;60.60;8.50;;;22.70;2.30;;;;;;5067557;28;20790;-67
2022/07/18 05:09:26;;;;;;;65.70;9.37;;;22.60;2.10;;;;;;5057852;28;20570;-67
2022/07/18 05:11:52;;;;;;;26.20;5.93;;;22.70;1.00;;;;;;5059955;28;20413;-67
2022/07/18 05:14:17;;;;;;;20.30;5.20;;;22.50;9.60;;;;;;5039659;28;20481;-67
2022/07/18 05:16:43;;;;;;;35.37;6.10;;;22.60;1.00;;;;;;5029750;28;20194;-67
2022/07/18 05:19:09;;;;;;;65.27;8.63;;;22.60;1.00;;;;;;5031445;28;20176;-67
2022/07/18 05:21:35;;;;;;;63.70;9.13;;;22.70;1.00;;;;;;5038175;28;20176;-67
2022/07/18 05:24:00;;;;;;;15.13;4.30;;;22.70;1.00;;;;;;5031623;28;20734;-67
2022/07/18 05:26:26;;;;;;;7.27;3.83;;;22.90;1.00;;;;;;5038488;28;20187;-67
2022/07/18 05:28:52;;;;;;;8.07;3.90;;;22.90;1.00;;;;;;5043547;28;20164;-67
2022/07/18 05:31:18;;;;;;;15.53;4.73;;;22.90;1.00;;;;;;5041888;28;20243;-67
2022/07/18 05:33:44;;;;;;;11.00;3.90;;;23.00;1.00;;;;;;5031496;28;20249;-69
2022/07/18 05:36:09;;;;;;;29.23;6.67;;;23.00;1.00;;;;;;5035211;28;20230;-67
2022/07/18 05:38:35;;;;;;;24.70;6.37;;;23.30;1.00;;;;;;5031232;28;20203;-69
2022/07/18 05:41:01;;;;;;;17.37;6.00;;;23.30;1.00;;;;;;5031669;28;20176;-67
2022/07/18 05:43:27;;;;;;;26.70;10.30;;;23.40;1.00;;;;;;5032716;28;20175;-67
2022/07/18 05:45:52;;;;;;;30.43;5.93;;;23.50;1.00;;;;;;5043534;28;20183;-67
2022/07/18 05:48:18;;;;;;;10.90;3.60;;;23.40;1.00;;;;;;5047989;28;20190;-67
2022/07/18 05:50:44;;;;;;;36.03;6.63;;;23.50;1.00;;;;;;5043675;28;20542;-67
2022/07/18 05:53:11;;;;;;;35.63;5.83;;;23.70;1.00;;;;;;5038277;28;20805;-68
2022/07/18 05:55:37;;;;;;;34.37;6.10;;;23.80;1.00;;;;;;5042408;28;20987;-74
2022/07/18 05:58:03;;;;;;;12.40;4.07;;;23.80;1.00;;;;;;5031510;28;20497;-75
2022/07/18 06:00:29;;;;;;;22.07;5.27;;;24.00;1.00;;;;;;5039355;28;20415;-75
2022/07/18 06:02:55;;;;;;;12.97;3.60;;;24.20;1.00;;;;;;5039897;28;20487;-75
2022/07/18 06:05:22;;;;;;;45.93;7.37;;;24.40;1.00;;;;;;5037963;28;20905;-73
2022/07/18 06:07:47;;;;;;;22.73;4.83;;;24.60;1.00;;;;;;5028777;28;20192;-76
2022/07/18 06:10:13;;;;;;;9.40;3.93;;;24.60;1.00;;;;;;5040330;28;20436;-76
2022/07/18 06:12:39;;;;;;;8.27;3.30;;;24.60;1.00;;;;;;5059934;28;20174;-73
2022/07/18 06:15:07;;;;;;;7.20;3.47;;;24.40;1.00;;;;;;5060980;28;20467;-75
2022/07/18 06:17:33;;;;;;;10.07;4.27;;;24.20;1.00;;;;;;5051157;28;20253;-75
2022/07/18 06:19:59;;;;;;;16.67;4.47;;;24.00;1.00;;;;;;5046046;28;20457;-73
2022/07/18 06:22:25;;;;;;;44.13;6.50;;;24.20;1.00;;;;;;5044509;28;20413;-73
2022/07/18 06:24:52;;;;;;;77.67;9.23;;;24.10;1.00;;;;;;5016853;28;20199;-75
2022/07/18 06:27:18;;;;;;;90.43;10.47;;;24.50;1.00;;;;;;5031222;28;20444;-68
2022/07/18 06:29:44;;;;;;;8.03;3.00;;;24.90;1.00;;;;;;5037049;28;20179;-68
2022/07/18 06:32:09;;;;;;;5.70;2.70;;;24.60;1.00;;;;;;5043264;28;20187;-67
2022/07/18 06:34:35;;;;;;;56.27;8.30;;;24.50;1.00;;;;;;5043913;28;20272;-68
2022/07/18 06:37:01;;;;;;;21.77;4.77;;;24.90;1.00;;;;;;5036607;28;20190;-68
2022/07/18 06:39:27;;;;;;;16.37;4.00;;;25.40;1.00;;;;;;5039230;28;20506;-68
2022/07/18 06:41:53;;;;;;;25.17;4.57;;;25.70;1.00;;;;;;5030577;28;20243;-68
2022/07/18 06:44:18;;;;;;;3.83;2.97;;;25.70;1.00;;;;;;5034244;28;20215;-68
2022/07/18 06:46:44;;;;;;;19.57;4.40;;;25.20;1.00;;;;;;5030896;28;20727;-68
2022/07/18 06:49:32;;;;;;;39.27;5.67;;;25.10;1.00;;;;;;5032899;28;20222;-69
2022/07/18 06:51:57;;;;;;;12.10;3.60;;;25.30;1.00;;;;;;5029371;28;20627;-68
2022/07/18 06:54:27;;;;;;;8.23;3.57;;;25.10;1.00;;;;;;5028656;28;20453;-68
2022/07/18 06:56:54;;;;;;;7.53;3.27;;;24.90;1.00;;;;;;5029379;28;20564;-68
2022/07/18 06:59:20;;;;;;;19.63;4.33;;;24.80;1.00;;;;;;5036367;28;20409;-68
2022/07/18 07:01:45;;;;;;;9.13;3.60;;;25.10;1.00;;;;;;5040878;28;20413;-69
2022/07/18 07:04:11;;;;;;;8.67;3.10;;;24.90;1.00;;;;;;5037425;28;20174;-69
2022/07/18 07:06:38;;;;;;;26.73;5.60;;;25.10;1.00;;;;;;5030232;28;20226;-70
2022/07/18 07:09:05;;;;;;;3.53;3.13;;;25.50;1.00;;;;;;5039298;28;20183;-69
2022/07/18 07:11:31;;;;;;;5.50;3.07;;;25.20;1.00;;;;;;5036809;28;20414;-69
2022/07/18 07:14:00;;;;;;;6.40;3.30;;;25.70;1.00;;;;;;5029704;28;20936;-70
2022/07/18 07:16:25;;;;;;;18.17;4.43;;;25.80;1.00;;;;;;5036203;28;20420;-70
2022/07/18 07:18:51;;;;;;;9.90;3.87;;;25.50;1.00;;;;;;5044293;28;20405;-67
2022/07/18 07:21:17;;;;;;;20.37;4.07;;;26.00;1.00;;;;;;5045083;28;20328;-68
2022/07/18 07:23:43;;;;;;;9.03;3.70;;;26.20;1.00;;;;;;5044487;28;20182;-68
2022/07/18 07:26:08;;;;;;;3.57;3.20;;;25.60;1.00;;;;;;5038458;28;20175;-69
2022/07/18 07:28:34;;;;;;;5.93;3.90;;;25.00;1.00;;;;;;5030098;28;20671;-69
2022/07/18 07:31:00;;;;;;;5.90;2.80;;;25.40;1.00;;;;;;5040218;28;20663;-69
2022/07/18 07:33:26;;;;;;;7.53;3.40;;;25.60;1.00;;;;;;5028870;28;20405;-68
2022/07/18 07:35:52;;;;;;;20.60;4.70;;;25.50;1.00;;;;;;5032703;28;20692;-68
2022/07/18 07:38:18;;;;;;;16.23;3.83;;;25.90;1.00;;;;;;5038315;28;20187;-70
2022/07/18 07:40:48;;;;;;;14.07;4.20;;;26.10;1.00;;;;;;5044134;28;20178;-69
2022/07/18 07:43:15;;;;;;;7.33;3.60;;;26.00;1.00;;;;;;5032769;28;20448;-69
2022/07/18 07:45:42;;;;;;;6.73;3.47;;;25.90;1.00;;;;;;5041924;28;21014;-69
2022/07/18 07:48:07;;;;;;;6.20;3.20;;;25.60;1.00;;;;;;5041306;28;20533;-69
2022/07/18 07:50:34;;;;;;;16.27;4.43;;;25.60;1.00;;;;;;5044843;28;20446;-69
2022/07/18 07:53:00;;;;;;;7.53;4.07;;;25.70;1.00;;;;;;5040171;28;20197;-69
2022/07/18 07:55:26;;;;;;;22.87;4.20;;;25.80;1.00;;;;;;5041963;28;20945;-69
2022/07/18 07:57:52;;;;;;;7.67;4.13;;;26.70;1.00;;;;;;5040264;28;20210;-68
2022/07/18 08:00:18;;;;;;;7.97;3.27;;;26.70;1.00;;;;;;5033497;28;20433;-70
2022/07/18 08:03:10;;;;;;;52.27;7.47;;;26.70;1.00;;;;;;5036735;28;20246;-71
2022/07/18 08:05:38;;;;;;;4.50;3.50;;;26.90;1.00;;;;;;5036518;28;20242;-69
2022/07/18 08:08:05;;;;;;;37.13;7.27;;;26.80;1.00;;;;;;5052847;28;20425;-69
2022/07/18 08:10:31;;;;;;;40.97;5.80;;;26.80;1.00;;;;;;5029425;28;20936;-69
2022/07/18 08:12:57;;;;;;;8.33;3.53;;;26.60;1.00;;;;;;5030156;28;20414;-69
2022/07/18 08:15:24;;;;;;;13.83;4.10;;;27.10;1.00;;;;;;5038461;28;20471;-70
2022/07/18 08:17:50;;;;;;;5.43;3.50;;;27.20;1.00;;;;;;5043096;28;20437;-69
2022/07/18 08:20:19;;;;;;;20.70;5.77;;;27.40;1.00;;;;;;5034110;28;20439;-69
2022/07/18 08:23:04;;;;;;;13.47;5.77;;;27.90;1.00;;;;;;5036194;28;20170;-69
2022/07/18 08:25:32;;;;;;;128.73;14.77;;;28.40;1.00;;;;;;5039151;28;20542;-68
2022/07/18 08:27:59;;;;;;;20.13;5.20;;;28.40;1.00;;;;;;5037794;28;20924;-68
2022/07/18 08:30:25;;;;;;;28.40;6.30;;;28.30;1.00;;;;;;5040728;28;20548;-69
2022/07/18 08:32:51;;;;;;;9.47;5.00;;;28.50;1.00;;;;;;5034218;28;20773;-69
2022/07/18 08:35:17;;;;;;;12.33;6.50;;;27.70;1.00;;;;;;5038620;28;20519;-70
2022/07/18 08:37:43;;;;;;;64.43;11.90;;;27.50;1.00;;;;;;5037323;28;20198;-70
2022/07/18 08:40:09;;;;;;;62.77;11.80;;;27.90;1.00;;;;;;5033674;28;20420;-71
2022/07/18 08:42:35;;;;;;;12.20;6.33;;;28.20;1.00;;;;;;5033268;28;20163;-70
2022/07/18 08:45:02;;;;;;;19.10;6.93;;;28.40;1.00;;;;;;5043901;28;20775;-70
2022/07/18 08:47:30;;;;;;;4.53;3.93;;;28.30;1.00;;;;;;5034544;28;21046;-69
2022/07/18 08:49:56;;;;;;;34.23;6.67;;;28.10;1.00;;;;;;5046830;28;20507;-70
2022/07/18 08:52:22;;;;;;;26.73;6.40;;;28.30;1.00;;;;;;5046210;28;20796;-68
2022/07/18 08:54:48;;;;;;;6.97;4.33;;;28.60;1.00;;;;;;5043877;28;20660;-69
2022/07/18 08:57:15;;;;;;;7.00;2.97;;;28.20;1.00;;;;;;5033256;28;20514;-69
2022/07/18 08:59:41;;;;;;;24.07;5.20;;;28.20;1.00;;;;;;5042209;28;20440;-69
2022/07/18 09:02:10;;;;;;;8.20;4.50;;;28.30;1.00;;;;;;5035803;28;20418;-68
2022/07/18 09:04:40;;;;;;;10.17;3.53;;;28.10;1.00;;;;;;5036900;28;20241;-69
2022/07/18 09:07:08;;;;;;;46.27;7.10;;;27.80;1.00;;;;;;5037521;28;20441;-68
2022/07/18 09:09:35;;;;;;;7.73;3.37;;;28.00;1.00;;;;;;5039308;28;20425;-69
2022/07/18 09:12:08;;;;;;;16.90;3.90;;;28.00;1.00;;;;;;5047859;28;20546;-69
2022/07/18 09:14:38;;;;;;;7.13;3.07;;;28.00;1.00;;;;;;5033292;28;20461;-68
2022/07/18 09:17:25;;;;;;;13.00;3.33;;;27.80;1.00;;;;;;5027735;28;21022;-69
2022/07/18 09:20:10;;;;;;;15.20;4.40;;;27.60;1.00;;;;;;5033678;28;20413;-68
2022/07/18 09:22:37;;;;;;;5.33;3.53;;;27.90;1.00;;;;;;5033491;28;20398;-69
2022/07/18 09:25:09;;;;;;;8.83;3.30;;;27.90;1.00;;;;;;5037515;28;20432;-69
2022/07/18 09:27:38;;;;;;;7.67;2.97;;;28.00;1.00;;;;;;5038751;28;20503;-69
2022/07/18 09:30:10;;;;;;;14.37;5.20;;;27.80;1.00;;;;;;5034269;28;20783;-69
2022/07/18 09:32:37;;;;;;;20.20;5.27;;;27.70;1.00;;;;;;5036197;28;20495;-70
2022/07/18 09:35:15;;;;;;;21.80;4.43;;;28.10;1.00;;;;;;5038359;28;20452;-68
2022/07/18 09:38:03;;;;;;;22.43;3.90;;;28.60;1.00;;;;;;5036204;28;20437;-68
2022/07/18 09:40:33;;;;;;;17.43;4.47;;;28.40;1.00;;;;;;5038988;28;20417;-69
2022/07/18 09:43:01;;;;;;;17.63;3.90;;;28.70;1.00;;;;;;5038463;28;20410;-68
2022/07/18 09:45:36;;;;;;;34.77;5.00;;;28.90;1.00;;;;;;5045169;28;20439;-68
2022/07/18 09:48:13;;;;;;;21.30;5.20;;;28.70;1.00;;;;;;5037150;28;20449;-67
2022/07/18 09:50:43;;;;;;;8.10;3.17;;;28.90;1.00;;;;;;5021317;28;20416;-69
2022/07/18 09:53:19;;;;;;;9.83;3.27;;;28.60;1.00;;;;;;5038929;28;20428;-68
2022/07/18 09:55:54;;;;;;;7.90;3.50;;;28.70;1.00;;;;;;5041436;28;20968;-68
2022/07/18 09:58:27;;;;;;;5.03;2.43;;;28.30;1.00;;;;;;5044129;28;20554;-69
2022/07/18 10:00:55;;;;;;;8.90;2.70;;;28.40;1.00;;;;;;5046651;28;20417;-69
2022/07/18 10:03:22;;;;;;;13.57;4.50;;;28.40;1.00;;;;;;5042887;28;20483;-68
2022/07/18 10:05:49;;;;;;;4.50;2.30;;;28.80;1.00;;;;;;5040818;28;20448;-69
2022/07/18 10:08:18;;;;;;;41.80;6.80;;;28.80;1.00;;;;;;5034391;28;20472;-68
2022/07/18 10:10:45;;;;;;;27.77;4.27;;;28.70;1.00;;;;;;5046391;28;20572;-69
2022/07/18 10:13:11;;;;;;;3.43;2.50;;;28.50;1.00;;;;;;5036329;28;20426;-68
2022/07/18 10:15:39;;;;;;;24.70;3.60;;;28.60;1.00;;;;;;5044372;28;20453;-69
2022/07/18 10:18:18;;;;;;;9.10;3.17;;;29.00;1.00;;;;;;5044061;28;20433;-69
2022/07/18 10:21:04;;;;;;;55.60;7.63;;;29.30;1.00;;;;;;5036400;28;20943;-69
2022/07/18 10:23:45;;;;;;;5.33;3.20;;;29.70;1.00;;;;;;5044976;28;20443;-74
2022/07/18 10:26:21;;;;;;;14.73;3.73;;;29.50;1.00;;;;;;5044676;28;20425;-73
2022/07/18 10:28:56;;;;;;;5.10;2.80;;;29.40;1.00;;;;;;5037598;28;20420;-73
2022/07/18 10:31:30;;;;;;;5.20;2.83;;;29.10;1.00;;;;;;5047368;28;20444;-73
2022/07/18 10:34:12;;;;;;;14.10;3.63;;;29.00;1.00;;;;;;5041893;28;20453;-73
2022/07/18 10:36:50;;;;;;;4.73;2.80;;;28.90;1.00;;;;;;5036292;28;20432;-74
2022/07/18 10:39:20;;;;;;;5.90;2.80;;;28.80;1.00;;;;;;5031106;28;20429;-74
2022/07/18 10:41:46;;;;;;;8.87;3.50;;;29.20;1.00;;;;;;5044844;28;21089;-74
2022/07/18 10:44:24;;;;;;;6.40;3.00;;;29.30;1.00;;;;;;5041785;28;20472;-74
2022/07/18 10:49:52;;;;;;;12.90;3.13;;;28.90;1.00;;;;;;5037356;28;20792;-73
2022/07/18 10:55:23;;;;;;;50.63;7.10;;;29.20;1.00;;;;;;5038488;28;20457;-74
2022/07/18 10:57:49;;;;;;;17.33;3.70;;;29.30;1.00;;;;;;5040992;28;20448;-73
2022/07/18 11:00:16;;;;;;;10.77;3.20;;;29.40;1.00;;;;;;5036923;28;20422;-68
2022/07/18 11:03:00;;;;;;;35.23;5.63;;;29.50;1.00;;;;;;5037263;28;20181;-68
2022/07/18 11:05:26;;;;;;;6.33;2.97;;;29.60;1.00;;;;;;5035521;28;20460;-68
2022/07/18 11:07:58;;;;;;;7.13;3.27;;;29.60;1.00;;;;;;5046792;28;20520;-69
2022/07/18 11:10:42;;;;;;;2.77;2.57;;;29.30;1.00;;;;;;5032424;28;20178;-68
2022/07/18 11:13:43;;;;;;;11.80;3.00;;;28.80;1.00;;;;;;5030940;28;20582;-68
2022/07/18 11:16:25;;;;;;;4.97;2.47;;;28.50;1.00;;;;;;5001957;28;20465;-68
2022/07/18 11:18:51;;;;;;;17.60;3.27;;;28.50;1.00;;;;;;5029447;28;20417;-68
2022/07/18 11:21:30;;;;;;;5.07;2.80;;;28.60;1.00;;;;;;5034208;28;20422;-68
2022/07/18 11:24:06;;;;;;;11.40;2.93;;;28.70;1.00;;;;;;5031406;28;20554;-67
2022/07/18 11:26:33;;;;;;;9.03;3.10;;;28.90;1.00;;;;;;5041188;28;20502;-67
2022/07/18 11:29:06;;;;;;;4.60;2.33;;;29.20;1.00;;;;;;5043228;28;20480;-67
2022/07/18 11:31:53;;;;;;;2.60;2.40;;;29.20;1.00;;;;;;5046681;28;20425;-67
2022/07/18 11:34:20;;;;;;;4.13;2.63;;;29.10;1.00;;;;;;5046947;28;20467;-68
2022/07/18 11:36:47;;;;;;;4.17;2.90;;;29.00;1.00;;;;;;5048734;28;20523;-68
2022/07/18 11:39:14;;;;;;;10.00;3.00;;;29.00;1.00;;;;;;5038431;28;20505;-67
2022/07/18 11:41:41;;;;;;;4.00;3.50;;;29.10;1.00;;;;;;5031650;28;21200;-67
2022/07/18 11:44:27;;;;;;;12.63;4.00;;;29.40;1.00;;;;;;5038840;28;20428;-68
2022/07/18 11:47:08;;;;;;;8.70;4.00;;;29.60;1.00;;;;;;5031323;28;20448;-67
2022/07/18 11:49:35;;;;;;;12.53;2.90;;;29.70;1.00;;;;;;5029551;28;20416;-68
2022/07/18 11:52:01;;;;;;;6.43;2.90;;;29.50;1.00;;;;;;5031479;28;20433;-68
2022/07/18 11:54:28;;;;;;;4.30;2.40;;;29.50;1.00;;;;;;5014060;28;20539;-68
2022/07/18 11:56:55;;;;;;;6.33;2.80;;;29.50;1.00;;;;;;5014494;28;21090;-68
2022/07/18 11:59:34;;;;;;;2.53;2.10;;;29.30;1.00;;;;;;5033003;28;20927;-68
2022/07/18 12:02:01;;;;;;;8.50;2.77;;;29.30;1.00;;;;;;5036186;28;20424;-68
2022/07/18 12:04:27;;;;;;;5.00;2.60;;;29.30;1.00;;;;;;5038168;28;20429;-68
2022/07/18 12:07:18;;;;;;;11.43;3.30;;;29.20;1.00;;;;;;5039839;28;20448;-68
2022/07/18 12:09:44;;;;;;;6.20;2.57;;;29.10;1.00;;;;;;5033757;28;20171;-68
2022/07/18 12:12:14;;;;;;;3.57;3.07;;;29.20;1.00;;;;;;5040316;28;20777;-68
2022/07/18 12:14:40;;;;;;;8.73;2.80;;;29.20;1.00;;;;;;5033975;28;20484;-68
2022/07/18 12:17:07;;;;;;;6.80;2.97;;;29.20;1.00;;;;;;5046877;28;20487;-67
2022/07/18 12:19:39;;;;;;;9.00;3.53;;;29.20;1.00;;;;;;5041601;28;20539;-67
2022/07/18 12:22:09;;;;;;;6.77;3.17;;;29.00;1.00;;;;;;5038909;28;20408;-68
2022/07/18 12:24:56;;;;;;;3.20;2.40;;;29.10;1.00;;;;;;5042060;28;20417;-67
2022/07/18 12:27:33;;;;;;;3.63;2.80;;;29.10;1.00;;;;;;5046478;28;20448;-68
2022/07/18 12:30:13;;;;;;;6.23;2.60;;;29.40;1.00;;;;;;5048147;28;20431;-68
2022/07/18 12:32:52;;;;;;;4.70;3.23;;;29.50;1.00;;;;;;5038741;28;20430;-68
2022/07/18 12:35:25;;;;;;;28.43;5.27;;;29.50;1.00;;;;;;5034654;28;20806;-68
2022/07/18 12:37:52;;;;;;;6.80;2.80;;;29.50;1.00;;;;;;5037561;28;20458;-68
2022/07/18 12:40:19;;;;;;;3.47;2.50;;;29.70;1.00;;;;;;5043242;28;20413;-67
2022/07/18 12:42:44;;;;;;;19.50;4.70;;;29.70;1.00;;;;;;5040966;28;20464;-67
2022/07/18 12:45:11;;;;;;;19.93;5.03;;;29.60;1.00;;;;;;5047343;28;20424;-67
2022/07/18 12:47:37;;;;;;;4.63;2.67;;;29.80;1.00;;;;;;5037026;28;20240;-67
2022/07/18 12:50:05;;;;;;;4.10;2.77;;;29.70;1.00;;;;;;5047775;28;20445;-67
2022/07/18 12:52:30;;;;;;;4.77;2.60;;;29.70;1.00;;;;;;5046835;28;21052;-67
2022/07/18 12:54:56;;;;;;;13.17;3.23;;;29.70;1.00;;;;;;5035148;28;20545;-68
2022/07/18 12:57:22;;;;;;;2.80;2.40;;;29.80;1.00;;;;;;5016656;28;20256;-68
2022/07/18 12:59:49;;;;;;;7.20;3.00;;;29.90;1.00;;;;;;5033212;28;20258;-68
2022/07/18 13:02:15;;;;;;;11.00;3.20;;;29.90;1.00;;;;;;5034682;28;20887;-68
2022/07/18 13:04:41;;;;;;;14.97;3.63;;;30.10;1.00;;;;;;5033228;28;20905;-68